Terminal Aerodrome Forecast
Issued by NWS Duluth, MN

Home | Current Version | Previous Version | Text Only | Print | Product List | Glossary On
Versions: 1 2 3 4 5 6 7 8 9 10 11 12 13 14 15 16 17 18 19 20 21 22 23 24 25 26 27 28
000
FTUS43 KDLH 161501 AAB
TAFDLH
TAF AMD
KDLH 161501Z 1615/1712 17009KT 2SM BR VCSH OVC008
     FM161700 20005KT P6SM BKN015
     FM162100 14004KT 4SM SHRA BR VCTS OVC020CB
     FM170500 23007KT 2SM BR OVC008
     FM170800 27009KT P6SM BKN010=

USA.gov is the U.S. government's official web portal to all federal, state and local government web resources and services.